Time;durP1;ratioP1;P1;durP2;ratioP2;P2;SDS_P1;SDS_P2;PMS_P1;PMS_P2;Temp;Humidity;BMP_temperature;BMP_pressure;BME280_temperature;BME280_humidity;BME280_pressure;Samples;Min_cycle;Max_cycle;Signal;HPM_P1;HPM_P2
2024/01/27 00:02:04;;;;;;;13.60;7.80;;;;;;;-0.73;83.74;95692.41;110505;1274;22347;-81
2024/01/27 00:04:32;;;;;;;11.30;6.10;;;;;;;-0.63;84.04;95686.97;110554;1274;22124;-81
2024/01/27 00:07:00;;;;;;;15.50;8.10;;;;;;;-0.55;83.90;95685.45;110505;1274;22132;-81
2024/01/27 00:09:29;;;;;;;12.10;7.10;;;;;;;-0.46;84.04;95686.89;110511;1274;22921;-81
2024/01/27 00:11:57;;;;;;;14.50;7.50;;;;;;;-0.35;84.22;95684.88;110585;1274;22107;-81
2024/01/27 00:14:25;;;;;;;32.70;17.50;;;;;;;-0.28;84.17;95685.60;110527;1274;22281;-81
2024/01/27 00:16:53;;;;;;;34.80;17.40;;;;;;;-0.28;84.02;95687.48;110513;1274;22154;-81
2024/01/27 00:19:22;;;;;;;25.00;11.80;;;;;;;-0.27;83.94;95683.55;110450;1274;22135;-81
2024/01/27 00:21:50;;;;;;;26.60;14.50;;;;;;;-0.26;83.54;95677.16;110534;1271;22333;-81
2024/01/27 00:24:18;;;;;;;26.80;14.80;;;;;;;-0.27;83.27;95683.38;110525;1275;22197;-81
2024/01/27 00:26:47;;;;;;;22.80;12.00;;;;;;;-0.22;83.90;95683.48;110549;1274;22340;-81
2024/01/27 00:29:15;;;;;;;21.80;12.30;;;;;;;-0.18;83.60;95684.61;110497;1274;22129;-81
2024/01/27 00:31:44;;;;;;;21.80;11.10;;;;;;;-0.13;83.90;95681.97;110461;1274;22116;-81
2024/01/27 00:34:12;;;;;;;24.60;12.90;;;;;;;-0.05;84.15;95681.83;110496;1274;22166;-81
2024/01/27 00:36:43;;;;;;;21.00;11.50;;;;;;;0.03;84.00;95677.85;110515;1274;22152;-81
2024/01/27 00:39:11;;;;;;;19.60;11.30;;;;;;;0.08;83.98;95678.15;110515;1274;22202;-81
2024/01/27 00:41:39;;;;;;;20.90;11.90;;;;;;;0.16;83.88;95677.63;110567;1274;22138;-81
2024/01/27 00:44:07;;;;;;;17.00;10.40;;;;;;;0.23;83.90;95679.86;110640;1261;22813;-81
2024/01/27 00:46:37;;;;;;;18.80;11.70;;;;;;;0.24;83.37;95675.37;110540;1274;22345;-81
2024/01/27 00:49:05;;;;;;;21.20;11.80;;;;;;;0.25;83.60;95665.55;110558;1274;22134;-81
2024/01/27 00:51:34;;;;;;;18.10;9.20;;;;;;;0.28;83.27;95661.82;110541;1274;22913;-81
2024/01/27 00:54:02;;;;;;;15.00;8.00;;;;;;;0.27;82.79;95652.44;110562;1274;22316;-81
2024/01/27 00:56:30;;;;;;;10.50;7.20;;;;;;;0.21;82.36;95651.45;110552;1274;22868;-81
2024/01/27 00:58:58;;;;;;;10.50;5.90;;;;;;;0.18;82.67;95645.33;110552;1274;22127;-81
2024/01/27 01:01:26;;;;;;;11.50;6.20;;;;;;;0.21;82.75;95638.66;110578;1274;22132;-81
2024/01/27 01:03:54;;;;;;;12.60;6.20;;;;;;;0.18;82.33;95630.80;110550;1274;22146;-81
2024/01/27 01:06:23;;;;;;;12.10;6.40;;;;;;;0.15;82.29;95617.95;110499;1274;22151;-81
2024/01/27 01:08:51;;;;;;;9.90;6.50;;;;;;;0.16;82.75;95609.66;110521;1274;22211;-81
2024/01/27 01:11:20;;;;;;;11.30;6.20;;;;;;;0.22;83.08;95606.50;110527;1274;22230;-81
2024/01/27 01:13:48;;;;;;;9.40;5.80;;;;;;;0.22;82.60;95603.55;110538;1274;22190;-81
2024/01/27 01:16:16;;;;;;;8.30;6.20;;;;;;;0.20;82.74;95610.25;110553;1274;22155;-81
2024/01/27 01:18:44;;;;;;;10.40;6.00;;;;;;;0.21;82.82;95610.30;110488;1274;22177;-81
2024/01/27 01:21:12;;;;;;;9.00;5.40;;;;;;;0.23;82.77;95602.88;110556;1274;22544;-81
2024/01/27 01:23:41;;;;;;;9.30;5.30;;;;;;;0.15;82.36;95601.69;110535;1274;22206;-81
2024/01/27 01:26:09;;;;;;;10.50;6.00;;;;;;;0.07;82.54;95615.34;110498;1274;22925;-80
2024/01/27 01:28:37;;;;;;;10.40;5.30;;;;;;;0.08;82.83;95613.80;110542;1274;22152;-81
2024/01/27 01:31:07;;;;;;;9.10;5.50;;;;;;;0.08;82.71;95612.44;110521;1274;22803;-81
2024/01/27 01:33:36;;;;;;;8.40;4.90;;;;;;;0.06;82.38;95618.26;110579;1274;22138;-81
2024/01/27 01:36:04;;;;;;;9.20;4.70;;;;;;;0.01;82.80;95617.98;110631;1274;22178;-81
2024/01/27 01:38:33;;;;;;;7.40;5.00;;;;;;;-0.03;83.09;95626.89;110532;1274;22280;-81
2024/01/27 01:41:01;;;;;;;9.20;4.90;;;;;;;-0.07;82.90;95630.08;110510;1271;22129;-81
2024/01/27 01:43:29;;;;;;;7.10;4.00;;;;;;;-0.08;82.78;95632.65;110511;1274;22974;-81
2024/01/27 01:45:58;;;;;;;7.30;4.00;;;;;;;-0.09;82.71;95633.66;110554;1274;22186;-81
2024/01/27 01:48:26;;;;;;;10.30;5.40;;;;;;;-0.13;82.85;95639.45;110583;1274;23248;-81
2024/01/27 01:50:55;;;;;;;9.40;5.00;;;;;;;-0.14;83.14;95636.30;110596;1274;23361;-81
2024/01/27 01:53:23;;;;;;;9.60;5.30;;;;;;;-0.16;83.36;95633.15;110540;1274;22967;-81
2024/01/27 01:55:52;;;;;;;7.80;3.90;;;;;;;-0.17;83.65;95639.02;110543;1274;23104;-81
2024/01/27 01:58:20;;;;;;;8.10;4.00;;;;;;;-0.18;83.47;95644.36;110554;1263;22431;-81
2024/01/27 02:00:49;;;;;;;8.70;4.90;;;;;;;-0.21;83.85;95640.65;110534;1274;23141;-81
2024/01/27 02:03:17;;;;;;;9.00;5.30;;;;;;;-0.22;84.42;95643.39;110563;1274;22109;-81
2024/01/27 02:05:45;;;;;;;8.80;5.10;;;;;;;-0.24;84.71;95643.00;110573;1274;23053;-81
2024/01/27 02:08:14;;;;;;;10.90;6.30;;;;;;;-0.20;84.59;95643.42;110532;1275;22698;-81
2024/01/27 02:10:42;;;;;;;9.10;4.50;;;;;;;-0.19;85.27;95635.32;110524;1275;22311;-81
2024/01/27 02:13:21;;;;;;;6.60;4.30;;;;;;;-0.16;85.10;95643.16;110549;1274;22838;-81
2024/01/27 02:15:50;;;;;;;7.70;4.30;;;;;;;-0.11;85.06;95643.46;110646;1275;22178;-82
2024/01/27 02:18:19;;;;;;;7.00;4.50;;;;;;;-0.08;85.30;95641.30;110559;1274;22139;-81
2024/01/27 02:20:48;;;;;;;6.30;3.80;;;;;;;0.00;85.45;95644.59;110579;1274;22756;-81
2024/01/27 02:23:16;;;;;;;7.40;4.20;;;;;;;0.04;85.72;95647.27;110535;1274;22105;-81
2024/01/27 02:25:44;;;;;;;8.60;3.30;;;;;;;0.08;85.58;95647.69;110541;1274;22168;-81
2024/01/27 02:28:13;;;;;;;5.80;4.10;;;;;;;0.11;85.48;95641.89;110512;1274;22151;-82
2024/01/27 02:30:41;;;;;;;7.50;3.70;;;;;;;0.19;86.18;95649.34;110561;1274;22146;-81
2024/01/27 02:33:09;;;;;;;5.90;3.60;;;;;;;0.26;85.85;95644.30;110537;1275;22233;-82
2024/01/27 02:35:38;;;;;;;5.40;3.30;;;;;;;0.24;85.51;95637.34;110608;1275;22137;-82
2024/01/27 02:38:06;;;;;;;6.00;3.60;;;;;;;0.30;85.70;95630.54;110552;1274;22101;-82
2024/01/27 02:40:34;;;;;;;5.30;3.60;;;;;;;0.35;85.68;95627.72;110624;1275;22212;-82
2024/01/27 02:43:03;;;;;;;5.00;3.40;;;;;;;0.41;85.77;95625.25;110588;1274;22650;-82
2024/01/27 02:45:31;;;;;;;5.60;3.10;;;;;;;0.48;86.09;95625.39;110517;1274;22113;-82
2024/01/27 02:47:59;;;;;;;5.10;3.60;;;;;;;0.55;85.71;95627.60;110551;1274;22119;-82
2024/01/27 02:50:28;;;;;;;5.60;3.70;;;;;;;0.54;85.53;95629.31;110567;1275;22797;-82
2024/01/27 02:52:56;;;;;;;6.50;4.70;;;;;;;0.58;86.08;95632.67;110543;1274;22129;-82
2024/01/27 02:55:24;;;;;;;10.00;5.50;;;;;;;0.62;85.74;95630.67;110520;1274;22137;-82
2024/01/27 02:57:52;;;;;;;7.70;5.00;;;;;;;0.57;85.18;95631.45;110588;1274;22350;-82
2024/01/27 03:00:21;;;;;;;6.30;3.90;;;;;;;0.58;85.39;95644.27;110581;1259;22734;-82
2024/01/27 03:02:49;;;;;;;7.10;3.30;;;;;;;0.57;85.56;95633.18;110567;1274;22289;-82
2024/01/27 03:05:17;;;;;;;6.00;3.30;;;;;;;0.50;85.91;95636.85;110538;1274;22633;-82
2024/01/27 03:07:45;;;;;;;6.50;2.40;;;;;;;0.53;86.07;95648.67;110510;1274;22866;-82
2024/01/27 03:10:14;;;;;;;5.10;3.30;;;;;;;0.52;85.90;95648.30;110561;1274;22108;-82
2024/01/27 03:12:42;;;;;;;9.80;5.80;;;;;;;0.44;86.65;95639.50;110542;1274;22116;-82
2024/01/27 03:15:10;;;;;;;13.30;7.90;;;;;;;0.42;86.59;95643.77;110564;1275;22101;-82
2024/01/27 03:17:39;;;;;;;11.70;7.10;;;;;;;0.43;86.58;95649.34;110552;1274;22960;-82
2024/01/27 03:20:08;;;;;;;12.10;7.20;;;;;;;0.41;86.35;95648.79;110549;1275;22136;-82
2024/01/27 03:22:36;;;;;;;12.70;6.90;;;;;;;0.37;86.24;95656.83;110561;1274;22124;-82
2024/01/27 03:25:05;;;;;;;7.50;5.20;;;;;;;0.33;86.50;95649.47;110578;1274;22869;-83
2024/01/27 03:27:35;;;;;;;7.50;4.70;;;;;;;0.26;86.26;95648.27;110581;1264;22234;-83
2024/01/27 03:30:04;;;;;;;7.70;3.80;;;;;;;0.23;86.76;95653.04;110574;1275;22136;-82
2024/01/27 03:32:32;;;;;;;5.70;3.70;;;;;;;0.17;88.13;95657.41;110569;1274;22213;-83
2024/01/27 03:35:01;;;;;;;9.20;5.90;;;;;;;0.13;89.35;95660.96;110572;1274;22120;-83
2024/01/27 03:37:29;;;;;;;9.60;5.20;;;;;;;0.11;89.07;95654.86;110583;1275;22901;-84
2024/01/27 03:39:57;;;;;;;5.00;3.20;;;;;;;0.15;88.90;95658.95;110622;1275;22933;-82
2024/01/27 03:42:26;;;;;;;1.50;1.00;;;;;;;0.21;89.21;95644.02;110584;1274;22197;-84
2024/01/27 03:44:54;;;;;;;4.20;2.20;;;;;;;0.28;90.01;95653.49;110542;1274;22210;-84
2024/01/27 03:47:23;;;;;;;3.20;1.90;;;;;;;0.38;89.54;95647.15;110580;1274;23038;-84
2024/01/27 03:49:51;;;;;;;6.30;3.00;;;;;;;0.49;89.46;95655.68;110563;1274;22121;-84
2024/01/27 03:52:20;;;;;;;1.50;1.10;;;;;;;0.57;89.16;95667.11;110548;1275;22121;-84
2024/01/27 03:54:49;;;;;;;3.70;1.70;;;;;;;0.62;89.02;95661.48;110540;1275;22085;-83
2024/01/27 03:57:17;;;;;;;2.30;1.10;;;;;;;0.69;88.99;95670.98;110543;1274;22119;-84
2024/01/27 03:59:45;;;;;;;2.20;0.80;;;;;;;0.75;89.02;95679.41;110573;1274;22911;-82
2024/01/27 04:02:13;;;;;;;2.90;1.60;;;;;;;0.80;88.98;95673.45;110562;1275;22362;-83
2024/01/27 04:04:42;;;;;;;5.40;2.60;;;;;;;0.84;88.86;95682.03;110558;1274;22280;-83
2024/01/27 04:07:10;;;;;;;2.90;1.80;;;;;;;0.88;88.97;95683.13;110545;1274;22108;-83
2024/01/27 04:09:38;;;;;;;2.20;1.10;;;;;;;0.91;88.74;95686.33;110570;1275;22156;-83
2024/01/27 04:12:07;;;;;;;1.00;0.60;;;;;;;0.92;88.48;95690.67;110577;1274;23116;-82
2024/01/27 04:14:36;;;;;;;1.80;1.10;;;;;;;0.90;88.37;95700.15;110552;1274;22265;-83
2024/01/27 04:17:05;;;;;;;2.90;1.30;;;;;;;0.90;88.41;95703.96;110543;1274;22891;-83
2024/01/27 04:19:33;;;;;;;2.40;1.40;;;;;;;0.94;88.53;95709.41;110568;1274;22160;-82
2024/01/27 04:22:01;;;;;;;2.20;1.40;;;;;;;0.99;88.67;95716.27;110563;1274;22244;-83
2024/01/27 04:24:29;;;;;;;1.40;1.00;;;;;;;1.00;88.65;95717.69;110576;1275;22965;-83
2024/01/27 04:26:59;;;;;;;2.70;1.00;;;;;;;1.04;88.54;95713.27;110561;1274;22092;-82
2024/01/27 04:29:28;;;;;;;0.90;0.50;;;;;;;1.06;88.22;95718.33;110611;1274;22749;-83
2024/01/27 04:31:56;;;;;;;6.50;2.80;;;;;;;1.04;87.85;95718.29;110540;1274;22255;-82
2024/01/27 04:34:24;;;;;;;9.60;3.50;;;;;;;1.08;88.29;95726.17;110541;1275;22179;-82
2024/01/27 04:36:52;;;;;;;4.80;2.40;;;;;;;1.07;88.28;95722.67;110601;1275;22191;-82
2024/01/27 04:39:20;;;;;;;19.30;8.80;;;;;;;1.11;88.28;95736.77;110574;1274;22147;-82
2024/01/27 04:41:49;;;;;;;3.90;2.00;;;;;;;1.14;88.39;95740.83;110533;1275;22119;-82
2024/01/27 04:44:20;;;;;;;3.40;1.60;;;;;;;1.20;88.25;95744.75;110614;1274;23007;-83
2024/01/27 04:46:48;;;;;;;1.90;1.20;;;;;;;1.21;87.91;95745.48;110588;1275;22172;-80
2024/01/27 04:49:16;;;;;;;3.80;1.80;;;;;;;1.20;88.04;95743.73;110580;1274;22112;-82
2024/01/27 04:51:45;;;;;;;1.70;1.00;;;;;;;1.25;87.88;95749.52;110598;1274;22237;-81
2024/01/27 04:54:13;;;;;;;1.60;1.00;;;;;;;1.25;87.96;95760.27;110635;1274;22176;-81
2024/01/27 04:56:41;;;;;;;1.60;1.10;;;;;;;1.29;88.11;95759.49;110570;1274;22184;-81
2024/01/27 04:59:10;;;;;;;1.50;0.90;;;;;;;1.28;87.97;95757.91;110595;1275;22111;-82
2024/01/27 05:01:38;;;;;;;0.90;0.80;;;;;;;1.26;87.60;95758.39;110571;1275;22366;-82
2024/01/27 05:04:06;;;;;;;1.40;0.90;;;;;;;1.26;87.78;95762.55;110584;1274;22200;-82
2024/01/27 05:06:35;;;;;;;1.00;0.70;;;;;;;1.31;88.08;95773.04;110582;1275;22887;-81
2024/01/27 05:09:04;;;;;;;1.40;0.70;;;;;;;1.32;87.65;95778.61;110562;1274;22137;-81
2024/01/27 05:11:32;;;;;;;1.20;0.60;;;;;;;1.28;87.56;95780.45;110610;1275;22260;-82
2024/01/27 05:14:01;;;;;;;0.70;0.40;;;;;;;1.30;87.51;95785.16;110628;1275;22179;-82
2024/01/27 05:16:29;;;;;;;1.40;0.80;;;;;;;1.34;87.59;95789.05;110553;1274;22194;-82
2024/01/27 05:18:57;;;;;;;1.90;0.80;;;;;;;1.37;87.39;95791.19;110586;1274;22295;-82
2024/01/27 05:21:25;;;;;;;1.20;0.60;;;;;;;1.40;87.25;95790.21;110602;1275;22236;-82
2024/01/27 05:23:54;;;;;;;1.10;0.50;;;;;;;1.45;87.29;95795.84;110570;1274;22152;-82
2024/01/27 05:26:23;;;;;;;0.50;0.40;;;;;;;1.48;86.94;95803.55;110556;1275;22303;-82
2024/01/27 05:28:51;;;;;;;0.80;0.50;;;;;;;1.53;86.87;95806.94;110573;1274;22137;-82
2024/01/27 05:31:19;;;;;;;0.70;0.40;;;;;;;1.57;86.69;95811.70;110584;1274;22225;-81
2024/01/27 05:33:47;;;;;;;0.30;0.30;;;;;;;1.60;86.51;95814.17;110578;1274;22155;-81
2024/01/27 05:36:16;;;;;;;0.50;0.30;;;;;;;1.61;86.47;95828.23;110603;1274;22868;-81
2024/01/27 05:38:44;;;;;;;1.00;0.70;;;;;;;1.64;86.46;95829.17;110574;1274;22114;-80
2024/01/27 05:41:12;;;;;;;0.40;0.40;;;;;;;1.66;86.10;95838.39;110562;1274;23147;-81
2024/01/27 05:43:40;;;;;;;1.00;0.70;;;;;;;1.67;86.07;95839.80;110555;1274;22127;-81
2024/01/27 05:46:10;;;;;;;1.00;0.80;;;;;;;1.63;86.11;95842.34;110581;1274;22185;-82
2024/01/27 05:48:38;;;;;;;4.10;1.70;;;;;;;1.60;86.20;95849.02;110561;1274;22134;-81
2024/01/27 05:51:07;;;;;;;1.40;1.00;;;;;;;1.60;86.04;95856.13;110590;1274;22187;-81
2024/01/27 05:53:37;;;;;;;1.10;0.90;;;;;;;1.63;85.91;95872.14;110583;1274;22882;-81
2024/01/27 05:56:05;;;;;;;2.70;1.40;;;;;;;1.61;85.93;95882.67;110554;1274;22272;-82
2024/01/27 05:58:33;;;;;;;3.60;1.40;;;;;;;1.61;85.93;95898.80;110563;1275;22811;-81
2024/01/27 06:01:02;;;;;;;3.60;1.60;;;;;;;1.58;86.13;95911.05;110586;1275;22136;-82
2024/01/27 06:03:31;;;;;;;4.80;1.90;;;;;;;1.57;86.23;95925.59;110598;1275;22213;-81
2024/01/27 06:06:00;;;;;;;3.70;1.20;;;;;;;1.54;86.28;95931.58;110553;1274;22715;-80
2024/01/27 06:08:29;;;;;;;5.20;2.00;;;;;;;1.53;85.99;95943.36;110583;1274;22137;-79
2024/01/27 06:10:57;;;;;;;3.60;1.60;;;;;;;1.51;85.63;95945.76;110551;1275;22755;-81
2024/01/27 06:13:25;;;;;;;3.30;1.60;;;;;;;1.48;85.33;95949.85;110599;1275;22111;-79
2024/01/27 06:15:54;;;;;;;4.40;2.10;;;;;;;1.46;85.17;95953.79;110550;1274;22973;-81
2024/01/27 06:18:24;;;;;;;3.80;2.00;;;;;;;1.40;84.92;95953.85;110483;1274;22148;-79
2024/01/27 06:20:52;;;;;;;6.50;2.40;;;;;;;1.38;85.01;95970.95;110619;1275;22123;-81
2024/01/27 06:23:20;;;;;;;7.40;2.20;;;;;;;1.35;84.95;95972.09;110526;1274;22854;-81
2024/01/27 06:25:48;;;;;;;4.00;1.70;;;;;;;1.35;84.69;95974.68;110569;1274;22137;-80
2024/01/27 06:28:17;;;;;;;7.90;3.10;;;;;;;1.32;84.77;95978.44;110582;1275;22111;-80
2024/01/27 06:30:46;;;;;;;5.30;2.70;;;;;;;1.34;84.85;95985.23;110558;1274;22120;-82
2024/01/27 06:33:14;;;;;;;7.70;3.90;;;;;;;1.34;84.58;95989.92;110578;1275;22122;-81
2024/01/27 06:35:42;;;;;;;3.00;1.80;;;;;;;1.30;84.17;95993.98;110554;1274;22237;-81
2024/01/27 06:38:10;;;;;;;6.40;2.50;;;;;;;1.31;83.90;95997.48;110521;1275;23052;-81
2024/01/27 06:40:39;;;;;;;4.90;2.10;;;;;;;1.30;83.69;96007.33;110526;1274;22977;-81
2024/01/27 06:43:07;;;;;;;4.50;2.50;;;;;;;1.29;83.54;96016.31;110540;1275;22922;-81
2024/01/27 06:45:35;;;;;;;7.20;2.50;;;;;;;1.29;83.08;96021.86;110568;1274;22129;-82
2024/01/27 06:48:05;;;;;;;7.40;3.90;;;;;;;1.29;82.69;96026.55;110569;1275;22120;-80
2024/01/27 06:50:34;;;;;;;7.30;3.60;;;;;;;1.28;82.90;96029.47;110495;1273;22420;-81
2024/01/27 06:53:02;;;;;;;9.30;4.80;;;;;;;1.28;82.78;96033.47;110557;1274;22112;-81
2024/01/27 06:55:30;;;;;;;12.80;5.90;;;;;;;1.25;82.49;96034.41;110559;1275;22117;-79
2024/01/27 06:57:58;;;;;;;10.40;5.70;;;;;;;1.24;82.49;96037.52;110556;1275;22259;-81
2024/01/27 07:00:27;;;;;;;5.60;3.30;;;;;;;1.22;82.12;96042.48;110585;1275;22256;-82
2024/01/27 07:02:58;;;;;;;6.10;3.50;;;;;;;1.22;81.96;96044.75;110556;1275;22117;-79
2024/01/27 07:05:26;;;;;;;6.80;2.50;;;;;;;1.22;81.45;96045.60;110570;1275;22152;-81
2024/01/27 07:07:54;;;;;;;7.10;3.70;;;;;;;1.24;81.22;96052.58;110511;1275;22198;-81
2024/01/27 07:10:22;;;;;;;3.40;2.00;;;;;;;1.25;81.21;96061.98;110532;1274;22331;-81
2024/01/27 07:12:51;;;;;;;6.60;2.00;;;;;;;1.25;80.94;96064.04;110560;1274;22823;-81
2024/01/27 07:15:21;;;;;;;5.20;2.30;;;;;;;1.27;81.12;96059.25;110538;1274;22669;-81
2024/01/27 07:17:50;;;;;;;5.70;2.40;;;;;;;1.28;80.04;96063.78;110546;1275;22965;-80
2024/01/27 07:20:18;;;;;;;5.80;2.10;;;;;;;1.31;80.17;96069.58;110516;1275;22191;-80
2024/01/27 07:22:47;;;;;;;5.30;2.20;;;;;;;1.30;79.41;96069.89;110580;1275;22118;-81
2024/01/27 07:25:15;;;;;;;9.90;2.90;;;;;;;1.34;78.69;96074.69;110515;1274;22172;-80
2024/01/27 07:27:44;;;;;;;6.80;2.00;;;;;;;1.33;78.68;96065.83;110520;1275;22252;-81
2024/01/27 07:30:13;;;;;;;5.20;2.60;;;;;;;1.34;78.76;96074.86;110532;1275;22230;-81
2024/01/27 07:32:41;;;;;;;6.80;2.10;;;;;;;1.34;78.74;96082.64;110606;1274;22623;-81
2024/01/27 07:35:09;;;;;;;6.80;2.60;;;;;;;1.31;78.55;96090.57;110606;1274;22153;-81
2024/01/27 07:37:38;;;;;;;5.10;2.00;;;;;;;1.29;78.26;96092.04;110519;1265;22120;-81
2024/01/27 07:40:08;;;;;;;5.40;2.30;;;;;;;1.27;77.92;96090.97;110507;1274;22117;-81
2024/01/27 07:42:36;;;;;;;5.50;2.40;;;;;;;1.30;78.25;96092.25;110586;1275;22155;-82
2024/01/27 07:45:05;;;;;;;9.10;2.40;;;;;;;1.27;77.75;96097.04;110511;1275;22122;-80
2024/01/27 07:47:33;;;;;;;7.40;2.00;;;;;;;1.30;78.26;96092.95;110500;1275;22134;-81
2024/01/27 07:50:01;;;;;;;6.50;2.00;;;;;;;1.33;78.10;96098.92;110572;1275;22289;-80
2024/01/27 07:52:30;;;;;;;6.50;2.80;;;;;;;1.39;77.59;96095.42;110552;1274;22272;-80
2024/01/27 07:54:58;;;;;;;5.50;2.10;;;;;;;1.45;77.51;96101.13;110473;1274;22165;-80
2024/01/27 07:57:27;;;;;;;5.10;1.90;;;;;;;1.53;77.43;96095.23;110504;1275;22201;-78
2024/01/27 07:59:55;;;;;;;2.50;1.60;;;;;;;1.61;77.30;96099.95;110544;1275;22113;-78
2024/01/27 08:02:26;;;;;;;2.90;1.40;;;;;;;1.71;77.27;96107.99;110520;1271;22126;-78
2024/01/27 08:04:54;;;;;;;4.80;1.50;;;;;;;1.81;76.20;96106.50;110484;1275;22807;-81
2024/01/27 08:07:22;;;;;;;7.10;1.50;;;;;;;1.91;75.67;96106.38;110513;1274;22270;-80
2024/01/27 08:09:51;;;;;;;3.20;1.80;;;;;;;1.93;74.89;96110.42;110598;1275;22585;-80
2024/01/27 08:12:19;;;;;;;5.30;1.80;;;;;;;1.98;75.39;96113.29;110477;1275;22266;-81
2024/01/27 08:14:47;;;;;;;8.20;3.30;;;;;;;2.04;74.27;96113.95;110495;1275;22202;-80
2024/01/27 08:17:16;;;;;;;6.80;3.20;;;;;;;1.99;74.02;96115.05;110544;1274;22341;-79
2024/01/27 08:19:44;;;;;;;7.70;2.10;;;;;;;2.01;74.14;96121.17;110461;1272;23143;-80
2024/01/27 08:22:12;;;;;;;6.60;2.90;;;;;;;2.05;74.56;96120.56;110532;1275;22864;-81
2024/01/27 08:24:40;;;;;;;10.30;4.60;;;;;;;2.07;74.46;96120.10;110510;1274;22131;-80
2024/01/27 08:27:09;;;;;;;7.20;2.90;;;;;;;2.09;74.95;96126.22;110490;1274;22206;-79
2024/01/27 08:29:37;;;;;;;4.10;2.30;;;;;;;2.08;73.90;96125.66;110605;1275;22119;-80
2024/01/27 08:32:05;;;;;;;4.50;2.70;;;;;;;2.11;73.90;96127.13;110498;1274;22142;-81
2024/01/27 08:34:34;;;;;;;6.60;2.60;;;;;;;2.10;73.00;96130.94;110493;1274;22205;-79
2024/01/27 08:37:02;;;;;;;7.20;4.00;;;;;;;2.11;73.06;96127.98;110527;1275;22899;-81
2024/01/27 08:39:30;;;;;;;8.80;3.60;;;;;;;2.10;72.63;96129.89;110482;1275;22831;-81
2024/01/27 08:41:59;;;;;;;5.00;2.30;;;;;;;2.12;73.03;96137.56;110519;1274;22490;-80
2024/01/27 08:44:27;;;;;;;4.10;2.20;;;;;;;2.07;72.81;96144.91;110561;1275;22119;-80
2024/01/27 08:46:55;;;;;;;2.40;1.60;;;;;;;2.04;71.80;96146.41;110564;1275;22783;-80
2024/01/27 08:49:27;;;;;;;4.90;2.30;;;;;;;2.10;72.06;96146.55;110509;1274;22281;-80
2024/01/27 08:51:55;;;;;;;6.40;2.40;;;;;;;2.23;72.63;96154.98;110502;1274;22504;-80
2024/01/27 08:54:23;;;;;;;6.60;2.50;;;;;;;2.31;71.29;96154.66;110494;1275;22102;-79
2024/01/27 08:56:51;;;;;;;6.20;1.90;;;;;;;2.33;70.75;96156.79;110587;1274;22175;-81
2024/01/27 08:59:20;;;;;;;5.50;2.10;;;;;;;2.36;69.59;96154.77;110496;1275;22153;-80
2024/01/27 09:01:48;;;;;;;6.10;2.70;;;;;;;2.41;69.98;96162.51;110494;1275;23110;-80
2024/01/27 09:04:16;;;;;;;7.20;2.20;;;;;;;2.45;70.23;96163.98;110525;1275;22281;-79
2024/01/27 09:06:44;;;;;;;2.90;1.80;;;;;;;2.45;70.44;96160.69;110517;1274;22173;-80
2024/01/27 09:09:13;;;;;;;6.80;2.10;;;;;;;2.44;70.16;96175.23;110534;1274;22132;-82
2024/01/27 09:11:42;;;;;;;2.90;1.50;;;;;;;2.43;69.33;96175.06;110575;1274;22285;-80
2024/01/27 09:14:10;;;;;;;5.20;2.00;;;;;;;2.41;68.96;96174.48;110524;1263;22136;-80
2024/01/27 09:16:40;;;;;;;7.60;1.80;;;;;;;2.43;69.38;96178.35;110564;1275;22264;-81
2024/01/27 09:19:08;;;;;;;3.80;1.80;;;;;;;2.40;68.43;96182.09;110507;1275;22222;-80
2024/01/27 09:21:37;;;;;;;4.50;2.10;;;;;;;2.38;68.19;96181.70;110515;1275;22155;-80
2024/01/27 09:24:05;;;;;;;3.60;1.50;;;;;;;2.31;67.70;96181.02;110514;1274;22145;-80
2024/01/27 09:26:33;;;;;;;4.60;2.50;;;;;;;2.28;67.67;96180.09;110501;1274;22326;-80
2024/01/27 09:29:01;;;;;;;7.00;3.00;;;;;;;2.24;67.51;96184.86;110571;1275;22365;-79
2024/01/27 09:31:29;;;;;;;5.00;2.40;;;;;;;2.24;67.59;96186.06;110505;1274;22170;-81
2024/01/27 09:33:58;;;;;;;5.60;2.90;;;;;;;2.23;67.36;96186.58;110489;1274;22142;-81
2024/01/27 09:36:26;;;;;;;5.00;2.80;;;;;;;2.22;67.10;96186.20;110500;1274;22158;-79
2024/01/27 09:38:55;;;;;;;5.80;3.40;;;;;;;2.25;67.29;96188.88;110494;1275;22818;-80
2024/01/27 09:41:24;;;;;;;6.80;3.30;;;;;;;2.29;68.05;96187.07;110480;1263;22139;-80
2024/01/27 09:43:55;;;;;;;5.60;2.80;;;;;;;2.32;67.60;96183.15;110611;1275;22741;-80
2024/01/27 09:46:23;;;;;;;5.50;1.80;;;;;;;2.35;66.41;96182.86;110467;1274;22180;-80
2024/01/27 09:48:53;;;;;;;5.00;2.10;;;;;;;2.37;65.76;96180.98;110485;1275;22151;-80
2024/01/27 09:51:22;;;;;;;5.80;2.20;;;;;;;2.39;65.43;96188.67;110473;1275;22140;-81
2024/01/27 09:53:51;;;;;;;8.90;1.80;;;;;;;2.37;65.34;96186.91;110460;1275;22121;-82
2024/01/27 09:56:21;;;;;;;3.80;1.10;;;;;;;2.36;64.84;96188.28;110502;1272;22244;-80
2024/01/27 09:58:50;;;;;;;3.90;1.90;;;;;;;2.35;65.38;96181.65;110480;1274;22142;-80
2024/01/27 10:01:20;;;;;;;5.40;1.70;;;;;;;2.30;64.57;96186.40;110572;1274;22103;-80
2024/01/27 10:03:48;;;;;;;6.90;2.00;;;;;;;2.30;65.25;96187.77;110328;1274;22822;-80
2024/01/27 10:06:17;;;;;;;7.10;2.50;;;;;;;2.30;65.66;96190.05;110454;1267;22199;-80
2024/01/27 10:08:53;;;;;;;4.10;2.00;;;;;;;2.25;65.31;96194.26;110600;1274;23014;-81
2024/01/27 10:11:22;;;;;;;4.30;1.80;;;;;;;2.13;64.94;96195.56;110620;1274;22662;-81
2024/01/27 10:14:01;;;;;;;5.60;1.90;;;;;;;2.02;65.50;96202.74;110577;1274;22125;-82
2024/01/27 10:16:41;;;;;;;6.10;2.10;;;;;;;1.98;65.97;96202.83;110582;1274;22163;-80
2024/01/27 10:19:27;;;;;;;8.10;3.30;;;;;;;1.95;66.85;96207.79;110593;1274;22220;-79
2024/01/27 10:22:02;;;;;;;3.10;1.50;;;;;;;1.93;66.96;96199.06;110390;1275;22311;-80
2024/01/27 10:24:35;;;;;;;6.70;1.50;;;;;;;1.93;67.58;96195.23;110590;1274;22147;-80
2024/01/27 10:27:04;;;;;;;6.70;2.80;;;;;;;1.91;68.40;96201.27;110516;1274;22131;-80
2024/01/27 10:29:33;;;;;;;6.50;2.90;;;;;;;1.87;68.93;96199.10;110596;1274;22118;-79
2024/01/27 10:32:09;;;;;;;6.30;1.80;;;;;;;1.86;68.99;96198.02;110498;1274;22206;-79
2024/01/27 10:34:37;;;;;;;3.70;1.50;;;;;;;1.83;69.00;96198.65;110517;1274;22132;-80
2024/01/27 10:37:05;;;;;;;4.00;1.70;;;;;;;1.83;69.34;96200.38;110493;1274;22900;-80
2024/01/27 10:39:33;;;;;;;6.80;2.00;;;;;;;1.86;69.45;96200.61;110491;1274;22228;-79
2024/01/27 10:42:04;;;;;;;3.60;1.60;;;;;;;1.84;69.39;96201.60;110510;1274;22814;-79
2024/01/27 10:44:33;;;;;;;3.30;1.50;;;;;;;1.81;69.47;96203.27;110499;1274;22862;-79
2024/01/27 10:47:03;;;;;;;3.30;1.50;;;;;;;1.81;70.02;96202.08;110493;1274;22296;-79
2024/01/27 10:49:34;;;;;;;3.50;1.60;;;;;;;1.84;70.11;96209.40;110579;1274;22219;-79
2024/01/27 10:52:09;;;;;;;4.50;2.40;;;;;;;1.81;70.51;96209.34;110508;1274;22816;-79
2024/01/27 10:54:40;;;;;;;3.10;1.70;;;;;;;1.83;70.77;96209.89;110227;1274;339070;-80
2024/01/27 10:57:09;;;;;;;5.00;1.50;;;;;;;1.83;70.79;96206.80;110596;1264;22878;-80
2024/01/27 10:59:41;;;;;;;3.10;1.60;;;;;;;1.82;70.76;96206.41;110575;1274;22148;-80
2024/01/27 11:02:12;;;;;;;4.30;1.10;;;;;;;1.78;70.75;96211.36;110482;1274;22107;-79
2024/01/27 11:04:42;;;;;;;5.20;1.50;;;;;;;1.79;70.80;96212.40;110455;1274;22340;-79
2024/01/27 11:07:11;;;;;;;4.20;1.40;;;;;;;1.80;70.81;96210.36;110495;1274;22862;-80
2024/01/27 11:09:39;;;;;;;4.70;1.50;;;;;;;1.82;71.04;96207.98;110574;1274;22147;-79
2024/01/27 11:12:08;;;;;;;12.80;4.70;;;;;;;1.84;70.97;96208.89;110503;1274;22112;-80
2024/01/27 11:14:37;;;;;;;2.60;1.20;;;;;;;1.86;71.29;96212.60;110621;1274;23137;-80
2024/01/27 11:17:10;;;;;;;3.60;1.90;;;;;;;1.83;71.11;96214.95;110515;1274;22149;-79
2024/01/27 11:19:40;;;;;;;17.80;11.70;;;;;;;1.89;71.28;96210.24;110496;1274;22132;-80
2024/01/27 11:22:17;;;;;;;6.10;3.00;;;;;;;1.92;71.68;96209.27;110422;1274;22152;-80
2024/01/27 11:24:45;;;;;;;7.90;2.80;;;;;;;1.96;71.64;96211.29;110526;1274;22127;-80
2024/01/27 11:27:14;;;;;;;6.70;2.80;;;;;;;1.95;71.65;96213.69;110487;1274;22284;-79
2024/01/27 11:29:48;;;;;;;5.00;2.20;;;;;;;1.93;72.12;96217.11;110481;1274;22280;-79
2024/01/27 11:32:17;;;;;;;8.40;4.30;;;;;;;1.89;72.57;96220.99;110487;1274;22140;-79
2024/01/27 11:34:47;;;;;;;6.90;2.80;;;;;;;1.85;73.02;96226.08;110479;1274;22193;-79
2024/01/27 11:37:17;;;;;;;5.50;2.70;;;;;;;1.75;74.13;96229.50;110588;1274;22173;-79
2024/01/27 11:39:46;;;;;;;5.10;2.70;;;;;;;1.67;75.03;96227.20;110603;1274;22148;-80